Time;durP1;ratioP1;P1;durP2;ratioP2;P2;SDS_P1;SDS_P2;PMS_P1;PMS_P2;Temp;Humidity;BMP_temperature;BMP_pressure;BME280_temperature;BME280_humidity;BME280_pressure;Samples;Min_cycle;Max_cycle;Signal;HPM_P1;HPM_P2
2021/07/28 00:01:54;;;;;;;0.70;0.50;;;30.50;49.70;;;;;;5039461;28;20469;-66
2021/07/28 00:04:21;;;;;;;2.05;0.77;;;30.50;49.70;;;;;;5034144;28;20037;-66
2021/07/28 00:06:48;;;;;;;0.45;0.45;;;30.50;49.60;;;;;;5036883;28;20116;-65
2021/07/28 00:09:16;;;;;;;0.40;0.30;;;30.50;49.60;;;;;;5033143;28;20037;-64
2021/07/28 00:11:43;;;;;;;1.20;0.40;;;30.50;49.60;;;;;;5039411;28;20087;-65
2021/07/28 00:14:10;;;;;;;0.65;0.50;;;30.50;49.60;;;;;;5040543;28;20091;-65
2021/07/28 00:16:38;;;;;;;0.68;0.68;;;30.50;49.50;;;;;;5044916;28;20064;-64
2021/07/28 00:19:09;;;;;;;2.17;0.52;;;30.50;49.50;;;;;;5036057;28;20061;-64
2021/07/28 00:24:22;;;;;;;0.73;0.43;;;30.50;49.50;;;;;;5036049;28;20049;-65
2021/07/28 00:26:49;;;;;;;0.40;0.20;;;30.40;49.50;;;;;;5039562;28;20547;-65
2021/07/28 00:29:16;;;;;;;0.73;0.30;;;30.50;49.50;;;;;;5043897;28;20522;-65
2021/07/28 00:31:45;;;;;;;1.58;0.40;;;30.50;50.10;;;;;;5044478;28;20087;-64
2021/07/28 00:34:12;;;;;;;0.38;0.30;;;30.50;49.50;;;;;;5034034;28;20478;-64
2021/07/28 00:36:39;;;;;;;0.40;0.38;;;30.50;49.50;;;;;;5046088;28;20120;-65
2021/07/28 00:39:06;;;;;;;1.10;0.50;;;30.50;49.50;;;;;;5048677;28;20048;-65
2021/07/28 00:41:33;;;;;;;0.35;0.20;;;30.50;49.50;;;;;;5045520;28;20098;-65
2021/07/28 00:44:00;;;;;;;0.30;0.30;;;30.50;49.50;;;;;;5044108;28;20045;-65
2021/07/28 00:46:27;;;;;;;1.48;0.28;;;30.40;49.40;;;;;;5034903;28;20041;-65
2021/07/28 00:48:55;;;;;;;4.40;0.40;;;30.40;48.00;;;;;;5038094;28;20455;-64
2021/07/28 00:51:22;;;;;;;0.47;0.25;;;30.40;46.80;;;;;;5036973;28;20045;-64
2021/07/28 00:53:49;;;;;;;0.40;0.17;;;30.30;46.40;;;;;;5047317;28;20076;-64
2021/07/28 00:56:18;;;;;;;0.63;0.22;;;30.20;46.30;;;;;;5036501;28;20192;-63
2021/07/28 00:58:46;;;;;;;1.48;0.68;;;30.10;46.10;;;;;;5035257;28;20076;-63
2021/07/28 01:01:13;;;;;;;1.52;0.22;;;30.00;46.10;;;;;;5033437;28;20506;-62
2021/07/28 01:03:42;;;;;;;2.78;0.25;;;29.90;46.10;;;;;;5033483;28;20041;-62
2021/07/28 01:06:11;;;;;;;1.08;0.43;;;29.70;46.00;;;;;;5043270;28;20151;-62
2021/07/28 01:08:38;;;;;;;1.30;0.20;;;29.60;46.10;;;;;;5037182;28;20092;-62
2021/07/28 01:11:06;;;;;;;1.55;0.20;;;29.50;46.10;;;;;;5038550;28;20052;-62
2021/07/28 01:13:35;;;;;;;1.05;0.25;;;29.40;46.20;;;;;;5036115;28;20037;-62
2021/07/28 01:16:05;;;;;;;1.20;0.17;;;29.30;46.30;;;;;;5034043;28;20064;-60
2021/07/28 01:18:33;;;;;;;2.75;0.35;;;29.20;46.40;;;;;;5045136;28;20045;-61
2021/07/28 01:21:00;;;;;;;8.98;0.93;;;29.10;46.50;;;;;;5037535;28;20099;-63
2021/07/28 01:23:30;;;;;;;2.65;0.55;;;29.00;46.70;;;;;;5037197;28;20053;-64
2021/07/28 01:26:00;;;;;;;1.38;0.70;;;28.90;46.90;;;;;;5037084;28;20060;-63
2021/07/28 01:28:29;;;;;;;1.13;0.68;;;28.80;47.10;;;;;;5042726;28;20053;-64
2021/07/28 01:31:00;;;;;;;2.80;0.30;;;28.70;47.20;;;;;;5032246;28;20037;-63
2021/07/28 01:33:29;;;;;;;0.73;0.30;;;28.70;47.30;;;;;;5045474;28;20049;-63
2021/07/28 01:35:57;;;;;;;2.72;0.30;;;28.60;47.40;;;;;;5032084;28;20048;-63
2021/07/28 01:38:26;;;;;;;1.85;0.38;;;28.50;47.40;;;;;;5037207;28;20120;-63
2021/07/28 01:40:56;;;;;;;3.78;0.68;;;28.40;47.50;;;;;;5036697;28;20544;-63
2021/07/28 01:43:26;;;;;;;2.42;0.17;;;28.40;47.60;;;;;;5043131;28;20151;-63
2021/07/28 01:45:54;;;;;;;1.45;0.10;;;28.30;47.60;;;;;;5044066;28;20044;-62
2021/07/28 01:48:21;;;;;;;2.50;0.28;;;28.20;47.60;;;;;;5045819;28;20049;-61
2021/07/28 01:50:49;;;;;;;3.70;1.00;;;28.20;47.70;;;;;;5038078;28;20583;-63
2021/07/28 01:53:17;;;;;;;3.35;0.13;;;28.10;47.60;;;;;;5037151;28;20071;-61
2021/07/28 01:55:44;;;;;;;0.38;0.10;;;28.10;47.80;;;;;;5031153;28;20040;-61
2021/07/28 01:58:13;;;;;;;1.67;0.20;;;28.00;47.80;;;;;;5027770;28;20042;-62
2021/07/28 02:00:41;;;;;;;3.15;0.25;;;28.00;47.70;;;;;;5040869;28;20041;-62
2021/07/28 02:03:08;;;;;;;0.43;0.40;;;27.90;47.70;;;;;;5037575;28;20127;-62
2021/07/28 02:05:36;;;;;;;0.20;0.10;;;27.90;47.80;;;;;;5035487;28;20050;-60
2021/07/28 02:08:06;;;;;;;2.65;0.28;;;27.90;47.70;;;;;;5036576;28;20453;-62
2021/07/28 02:10:34;;;;;;;1.58;0.20;;;27.80;47.60;;;;;;5031440;28;20049;-61
2021/07/28 02:13:02;;;;;;;1.45;0.45;;;27.80;47.50;;;;;;5031939;28;20067;-62
2021/07/28 02:15:32;;;;;;;2.13;0.20;;;27.80;47.60;;;;;;5034657;28;20120;-63
2021/07/28 02:18:00;;;;;;;3.63;0.68;;;27.70;47.80;;;;;;5045367;28;20057;-64
2021/07/28 02:20:28;;;;;;;2.60;0.38;;;27.70;47.60;;;;;;5044614;28;20036;-62
2021/07/28 02:22:55;;;;;;;0.77;0.20;;;27.70;47.70;;;;;;5041571;28;20126;-63
2021/07/28 02:25:22;;;;;;;3.00;0.15;;;27.60;47.60;;;;;;5038297;28;20041;-64
2021/07/28 02:27:50;;;;;;;6.75;0.10;;;27.60;47.60;;;;;;5033647;28;20120;-63
2021/07/28 02:30:18;;;;;;;1.95;0.25;;;27.60;48.30;;;;;;5036350;28;20721;-63
2021/07/28 02:33:11;;;;;;;1.13;0.10;;;27.50;47.70;;;;;;5037514;28;20060;-62
2021/07/28 02:35:39;;;;;;;0.77;0.28;;;27.50;47.70;;;;;;5030414;28;20052;-64
2021/07/28 02:38:06;;;;;;;2.00;0.32;;;27.40;47.80;;;;;;5027373;28;20046;-64
2021/07/28 02:40:34;;;;;;;2.53;0.40;;;27.40;47.80;;;;;;5035077;28;20522;-62
2021/07/28 02:43:01;;;;;;;0.32;0.10;;;27.40;47.90;;;;;;5030191;28;20072;-63
2021/07/28 02:45:28;;;;;;;4.10;0.40;;;27.40;47.80;;;;;;5035727;28;20469;-63
2021/07/28 02:47:55;;;;;;;1.08;0.40;;;27.40;47.90;;;;;;5040533;28;20075;-64
2021/07/28 02:50:23;;;;;;;2.83;0.40;;;27.40;47.80;;;;;;5040678;28;20108;-63
2021/07/28 02:52:50;;;;;;;4.15;0.20;;;27.30;47.80;;;;;;5040575;28;20128;-63
2021/07/28 02:55:18;;;;;;;0.43;0.17;;;27.30;47.80;;;;;;5039603;28;20514;-64
2021/07/28 02:57:45;;;;;;;2.10;0.17;;;27.30;47.90;;;;;;5041912;28;20123;-63
2021/07/28 03:00:12;;;;;;;2.15;0.10;;;27.30;48.00;;;;;;5050718;28;20053;-64
2021/07/28 03:02:39;;;;;;;0.82;0.20;;;27.20;48.00;;;;;;5040563;28;20479;-64
2021/07/28 03:05:07;;;;;;;2.70;0.20;;;27.20;48.00;;;;;;5040119;28;20076;-64
2021/07/28 03:07:35;;;;;;;2.63;1.50;;;27.20;48.20;;;;;;5036978;28;20502;-63
2021/07/28 03:10:04;;;;;;;6.57;0.20;;;27.20;48.00;;;;;;5035778;28;20052;-64
2021/07/28 03:12:31;;;;;;;4.90;0.40;;;27.20;47.90;;;;;;5037440;28;20041;-64
2021/07/28 03:14:58;;;;;;;3.58;1.45;;;27.20;47.90;;;;;;5041179;28;20529;-64
2021/07/28 03:17:25;;;;;;;3.22;1.05;;;27.10;47.90;;;;;;5044271;28;20029;-64
2021/07/28 03:19:52;;;;;;;2.42;0.10;;;27.10;47.70;;;;;;5045667;28;20077;-64
2021/07/28 03:22:19;;;;;;;1.55;0.20;;;27.10;47.70;;;;;;5035580;28;20044;-64
2021/07/28 03:24:47;;;;;;;0.95;0.20;;;27.10;47.80;;;;;;5043532;28;20046;-63
2021/07/28 03:27:14;;;;;;;2.05;0.20;;;27.00;47.70;;;;;;5035240;28;20432;-63
2021/07/28 03:29:41;;;;;;;2.50;0.32;;;27.00;47.70;;;;;;5040552;28;20072;-64
2021/07/28 03:32:09;;;;;;;0.90;0.20;;;27.00;47.80;;;;;;5041522;28;20036;-64
2021/07/28 03:34:38;;;;;;;0.20;0.13;;;27.00;47.80;;;;;;5045636;28;20037;-63
2021/07/28 03:37:05;;;;;;;1.38;0.20;;;27.00;47.80;;;;;;5034989;28;20372;-61
2021/07/28 03:39:32;;;;;;;1.92;0.30;;;26.90;47.70;;;;;;5036771;28;20068;-61
2021/07/28 03:42:00;;;;;;;0.10;0.10;;;26.90;47.80;;;;;;5039509;28;20744;-63
2021/07/28 03:44:27;;;;;;;2.70;0.30;;;26.90;47.90;;;;;;5038987;28;20120;-63
2021/07/28 03:46:54;;;;;;;0.20;0.20;;;26.90;48.40;;;;;;5038611;28;20119;-63
2021/07/28 03:49:21;;;;;;;2.72;0.10;;;26.90;47.50;;;;;;5044562;28;20044;-63
2021/07/28 03:51:48;;;;;;;4.97;0.22;;;26.90;47.50;;;;;;5034595;28;20131;-62
2021/07/28 03:54:15;;;;;;;1.23;0.20;;;26.90;47.60;;;;;;5039020;28;20061;-62
2021/07/28 03:56:42;;;;;;;1.95;0.20;;;26.90;47.50;;;;;;5040807;28;20135;-63
2021/07/28 03:59:11;;;;;;;3.10;0.10;;;26.80;47.60;;;;;;5041654;28;20043;-63
2021/07/28 04:01:38;;;;;;;4.75;0.90;;;26.90;47.60;;;;;;5046806;28;20043;-63
2021/07/28 04:04:05;;;;;;;2.72;0.30;;;26.80;47.60;;;;;;5034235;28;20092;-62
2021/07/28 04:06:32;;;;;;;0.25;0.20;;;26.80;47.50;;;;;;5035543;28;20052;-64
2021/07/28 04:08:59;;;;;;;2.15;0.20;;;26.80;47.40;;;;;;5040626;28;20148;-64
2021/07/28 04:11:26;;;;;;;1.33;0.20;;;26.80;47.40;;;;;;5038444;28;20135;-64
2021/07/28 04:13:53;;;;;;;3.90;0.82;;;26.80;47.70;;;;;;5040612;28;20856;-65
2021/07/28 04:16:21;;;;;;;0.75;0.40;;;26.80;47.60;;;;;;5046697;28;20041;-63
2021/07/28 04:18:48;;;;;;;1.73;0.10;;;26.80;47.40;;;;;;5045247;28;20131;-63
2021/07/28 04:21:15;;;;;;;2.55;0.22;;;26.80;48.00;;;;;;5034753;28;20042;-64
2021/07/28 04:23:42;;;;;;;0.93;0.10;;;26.80;47.20;;;;;;5040565;28;20045;-63
2021/07/28 04:26:09;;;;;;;5.15;0.57;;;26.80;47.00;;;;;;5040306;28;20124;-64
2021/07/28 04:28:36;;;;;;;0.75;0.20;;;26.80;47.00;;;;;;5044240;28;20092;-62
2021/07/28 04:31:03;;;;;;;4.78;0.65;;;26.70;47.00;;;;;;5044469;28;20030;-63
2021/07/28 04:33:32;;;;;;;7.95;0.13;;;26.70;47.00;;;;;;5035789;28;20076;-62
2021/07/28 04:35:58;;;;;;;4.57;1.00;;;26.70;46.80;;;;;;5049046;28;20044;-63
2021/07/28 04:38:26;;;;;;;3.20;0.20;;;26.70;46.90;;;;;;5042070;28;20127;-62
2021/07/28 04:40:53;;;;;;;2.42;0.50;;;26.70;46.70;;;;;;5037392;28;20056;-62
2021/07/28 04:43:20;;;;;;;2.63;0.25;;;26.70;46.70;;;;;;5034644;28;20136;-63
2021/07/28 04:45:47;;;;;;;0.88;0.20;;;26.70;46.50;;;;;;5034765;28;20125;-62
2021/07/28 04:48:14;;;;;;;2.40;0.10;;;26.70;46.50;;;;;;5033504;28;20512;-62
2021/07/28 04:50:42;;;;;;;2.42;0.30;;;26.70;46.40;;;;;;5037765;28;20115;-62
2021/07/28 04:53:09;;;;;;;1.98;0.20;;;26.70;46.90;;;;;;5038052;28;20569;-63
2021/07/28 04:55:36;;;;;;;5.30;0.20;;;26.70;46.30;;;;;;5035174;28;20037;-62
2021/07/28 04:58:03;;;;;;;4.68;0.55;;;26.70;46.40;;;;;;5033417;28;20049;-63
2021/07/28 05:00:30;;;;;;;0.95;0.45;;;26.70;46.50;;;;;;5035805;28;20095;-63
2021/07/28 05:02:57;;;;;;;6.20;0.30;;;26.70;46.40;;;;;;5036582;28;20068;-62
2021/07/28 05:05:24;;;;;;;6.70;0.10;;;26.60;46.30;;;;;;5037763;28;20057;-63
2021/07/28 05:07:52;;;;;;;4.22;0.40;;;26.60;46.40;;;;;;5035028;28;20094;-63
2021/07/28 05:10:19;;;;;;;2.05;0.70;;;26.60;46.40;;;;;;5035023;28;20118;-63
2021/07/28 05:12:47;;;;;;;1.30;0.10;;;26.60;46.50;;;;;;5040738;28;20141;-62
2021/07/28 05:15:14;;;;;;;3.03;0.20;;;26.60;46.50;;;;;;5033392;28;20460;-62
2021/07/28 05:17:42;;;;;;;1.08;0.60;;;26.60;46.50;;;;;;5043136;28;20422;-64
2021/07/28 05:20:11;;;;;;;1.17;0.10;;;26.60;46.50;;;;;;5042143;28;20037;-63
2021/07/28 05:22:38;;;;;;;4.47;0.20;;;26.60;46.70;;;;;;5034831;28;20490;-63
2021/07/28 05:25:07;;;;;;;3.00;0.30;;;26.60;46.60;;;;;;5032973;28;20120;-63
2021/07/28 05:27:34;;;;;;;3.58;0.10;;;26.60;46.60;;;;;;5044894;28;20119;-61
2021/07/28 05:30:02;;;;;;;2.95;0.60;;;26.60;46.50;;;;;;5048167;28;20082;-62
2021/07/28 05:32:29;;;;;;;2.17;0.20;;;26.60;46.50;;;;;;5043287;28;20126;-63
2021/07/28 05:34:56;;;;;;;3.22;0.35;;;26.50;46.60;;;;;;5043037;28;20041;-63
2021/07/28 05:37:25;;;;;;;1.67;0.20;;;26.50;46.50;;;;;;5033684;28;20041;-63
2021/07/28 05:39:52;;;;;;;2.50;0.90;;;26.50;46.60;;;;;;5043429;28;20050;-63
2021/07/28 05:42:20;;;;;;;5.78;0.30;;;26.50;46.40;;;;;;5036761;28;20072;-63
2021/07/28 05:44:47;;;;;;;5.97;0.10;;;26.50;46.40;;;;;;5037392;28;20071;-63
2021/07/28 05:47:14;;;;;;;8.48;0.30;;;26.50;46.50;;;;;;5037620;28;20071;-63
2021/07/28 05:49:41;;;;;;;4.38;0.20;;;26.50;46.40;;;;;;5035090;28;20082;-63
2021/07/28 05:52:08;;;;;;;11.80;0.40;;;26.50;46.40;;;;;;5034800;28;20064;-63
2021/07/28 05:54:35;;;;;;;3.40;0.20;;;26.50;46.40;;;;;;5034642;28;20063;-63
2021/07/28 05:57:03;;;;;;;6.05;0.20;;;26.50;46.30;;;;;;5038961;28;20049;-64
2021/07/28 05:59:31;;;;;;;4.43;1.48;;;26.50;46.40;;;;;;5038961;28;20033;-64
2021/07/28 06:01:58;;;;;;;5.15;0.28;;;26.50;46.50;;;;;;5036642;28;20565;-64
2021/07/28 06:04:25;;;;;;;2.45;0.20;;;26.50;46.50;;;;;;5034502;28;20124;-63
2021/07/28 06:06:52;;;;;;;5.00;0.17;;;26.40;46.50;;;;;;5032575;28;20054;-63
2021/07/28 06:09:19;;;;;;;2.60;0.10;;;26.50;46.60;;;;;;5036497;28;20049;-64
2021/07/28 06:11:46;;;;;;;2.92;0.20;;;26.50;46.70;;;;;;5039447;28;20045;-64
2021/07/28 06:14:13;;;;;;;5.68;0.20;;;26.50;46.70;;;;;;5033338;28;20128;-60
2021/07/28 06:16:42;;;;;;;0.60;0.20;;;26.50;46.70;;;;;;5030539;28;20041;-63
2021/07/28 06:19:09;;;;;;;4.72;0.20;;;26.50;46.70;;;;;;5031941;28;20128;-63
2021/07/28 06:21:36;;;;;;;7.70;0.93;;;26.40;46.70;;;;;;5041723;28;20124;-64
2021/07/28 06:24:03;;;;;;;6.60;0.20;;;26.40;46.80;;;;;;5047785;28;20033;-62
2021/07/28 06:26:30;;;;;;;4.70;0.75;;;26.40;46.80;;;;;;5048957;28;20076;-62
2021/07/28 06:28:57;;;;;;;2.10;0.40;;;26.40;46.90;;;;;;5047168;28;20045;-62
2021/07/28 06:31:24;;;;;;;2.05;0.25;;;26.40;46.90;;;;;;5034333;28;20065;-60
2021/07/28 06:33:53;;;;;;;2.15;0.45;;;26.40;46.90;;;;;;5044721;28;20041;-60
2021/07/28 06:36:20;;;;;;;4.90;0.20;;;26.40;47.10;;;;;;5048333;28;20045;-61
2021/07/28 06:38:47;;;;;;;1.45;0.50;;;26.40;46.90;;;;;;5039528;28;20065;-61
2021/07/28 06:41:14;;;;;;;5.78;0.17;;;26.40;47.00;;;;;;5044135;28;20118;-62
2021/07/28 06:43:41;;;;;;;3.15;0.20;;;26.40;47.10;;;;;;5038268;28;20075;-63
2021/07/28 06:46:08;;;;;;;0.75;0.15;;;26.40;47.10;;;;;;5040528;28;20044;-62
2021/07/28 06:48:36;;;;;;;6.07;0.50;;;26.40;47.10;;;;;;5042848;28;20155;-62
2021/07/28 06:51:05;;;;;;;1.35;0.30;;;26.50;47.10;;;;;;5042838;28;20767;-61
2021/07/28 06:53:32;;;;;;;6.22;0.60;;;26.40;47.00;;;;;;5042468;28;20518;-61
2021/07/28 06:55:59;;;;;;;4.85;0.65;;;26.50;47.00;;;;;;5045064;28;20082;-62
2021/07/28 06:58:26;;;;;;;25.50;1.48;;;26.40;46.90;;;;;;5037422;28;20041;-63
2021/07/28 07:00:56;;;;;;;7.65;0.20;;;26.50;47.00;;;;;;5037784;28;20045;-64
2021/07/28 07:03:24;;;;;;;4.20;0.30;;;26.50;47.00;;;;;;5048236;28;20038;-64
2021/07/28 07:05:51;;;;;;;7.63;0.80;;;26.50;47.00;;;;;;5040767;28;20069;-65
2021/07/28 07:08:19;;;;;;;3.67;0.35;;;26.50;47.60;;;;;;5042808;28;20045;-62
2021/07/28 07:10:46;;;;;;;8.35;0.43;;;26.50;47.60;;;;;;5044681;28;20048;-61
2021/07/28 07:13:13;;;;;;;4.93;0.20;;;26.40;47.70;;;;;;5047373;28;20041;-60
2021/07/28 07:15:41;;;;;;;3.67;0.22;;;26.30;47.90;;;;;;5036311;28;20530;-60
2021/07/28 07:18:08;;;;;;;4.88;0.77;;;26.20;48.10;;;;;;5040246;28;20838;-60
2021/07/28 07:20:36;;;;;;;3.70;0.50;;;26.10;48.40;;;;;;5039474;28;20076;-61
2021/07/28 07:23:03;;;;;;;1.35;0.20;;;26.00;48.60;;;;;;5040126;28;20402;-61
2021/07/28 07:25:31;;;;;;;2.47;0.30;;;26.00;48.90;;;;;;5035873;28;20033;-60
2021/07/28 07:27:58;;;;;;;3.65;0.90;;;25.90;49.10;;;;;;5033148;28;20717;-61
2021/07/28 07:30:25;;;;;;;2.63;0.20;;;25.90;49.30;;;;;;5036265;28;20053;-60
2021/07/28 07:35:34;;;;;;;0.45;0.40;;;25.70;49.50;;;;;;5044086;28;20506;-60
2021/07/28 07:38:01;;;;;;;2.40;0.10;;;25.70;49.70;;;;;;5047490;28;20661;-61
2021/07/28 07:40:28;;;;;;;1.95;0.50;;;25.70;49.90;;;;;;5035321;28;20126;-60
2021/07/28 07:42:56;;;;;;;2.20;0.20;;;25.60;50.00;;;;;;5035923;28;20123;-60
2021/07/28 07:45:24;;;;;;;0.90;0.20;;;25.60;50.20;;;;;;5048595;28;20073;-58
2021/07/28 07:47:51;;;;;;;1.17;0.10;;;25.60;50.30;;;;;;5039412;28;20049;-60
2021/07/28 07:50:18;;;;;;;1.95;0.60;;;25.60;50.40;;;;;;5041947;28;20048;-59
2021/07/28 07:52:45;;;;;;;1.50;0.10;;;25.60;50.50;;;;;;5039525;28;20125;-57
2021/07/28 07:55:13;;;;;;;0.40;0.10;;;25.60;50.70;;;;;;5037102;28;20784;-60
2021/07/28 07:57:40;;;;;;;0.80;0.10;;;25.60;50.90;;;;;;5047803;28;20215;-60
2021/07/28 08:00:10;;;;;;;1.65;0.10;;;25.50;51.00;;;;;;5048491;28;20057;-60
2021/07/28 08:02:37;;;;;;;0.57;0.10;;;25.50;51.20;;;;;;5047800;28;20166;-59
2021/07/28 08:05:05;;;;;;;3.58;0.10;;;25.50;51.10;;;;;;5046045;28;20102;-61
2021/07/28 08:07:32;;;;;;;1.45;0.20;;;25.50;51.30;;;;;;5039388;28;20045;-61
2021/07/28 08:09:59;;;;;;;0.55;0.17;;;25.50;51.40;;;;;;5034748;28;20127;-60
2021/07/28 08:12:26;;;;;;;2.40;1.00;;;25.50;51.40;;;;;;5037398;28;20046;-60
2021/07/28 08:14:54;;;;;;;0.20;0.10;;;25.50;51.50;;;;;;5033345;28;20053;-60
2021/07/28 08:17:22;;;;;;;1.73;0.57;;;25.50;51.50;;;;;;5040550;28;20775;-60
2021/07/28 08:19:50;;;;;;;0.47;0.20;;;25.50;51.60;;;;;;5037701;28;20056;-61
2021/07/28 08:22:17;;;;;;;0.55;0.20;;;25.50;51.60;;;;;;5046275;28;20033;-60
2021/07/28 08:24:44;;;;;;;0.47;0.10;;;25.50;51.60;;;;;;5034282;28;20033;-60
2021/07/28 08:27:11;;;;;;;2.60;0.80;;;25.50;51.70;;;;;;5048537;28;20102;-61
2021/07/28 08:29:38;;;;;;;1.05;0.20;;;25.50;51.70;;;;;;5037434;28;20072;-61
2021/07/28 08:32:06;;;;;;;1.42;0.10;;;25.50;51.70;;;;;;5043547;28;20068;-59
2021/07/28 08:34:54;;;;;;;0.73;0.10;;;25.50;51.80;;;;;;5039366;28;20048;-61
2021/07/28 08:37:21;;;;;;;0.40;0.10;;;25.50;51.80;;;;;;5033564;28;20053;-61
2021/07/28 08:39:48;;;;;;;0.75;0.10;;;25.50;51.80;;;;;;5036143;28;20098;-61
2021/07/28 08:42:19;;;;;;;0.22;0.10;;;25.50;51.90;;;;;;5043891;28;20388;-64
2021/07/28 08:44:47;;;;;;;1.85;0.50;;;25.50;51.90;;;;;;5037970;28;20045;-61
2021/07/28 08:47:14;;;;;;;0.30;0.30;;;25.50;51.80;;;;;;5040727;28;20707;-60
2021/07/28 08:49:41;;;;;;;0.32;0.10;;;25.50;51.90;;;;;;5037315;28;20451;-61
2021/07/28 08:52:11;;;;;;;1.95;0.10;;;25.50;51.90;;;;;;5033865;28;20056;-60
2021/07/28 08:54:38;;;;;;;0.20;0.20;;;25.50;51.90;;;;;;5034681;28;20140;-60
2021/07/28 08:57:10;;;;;;;1.05;0.10;;;25.50;51.90;;;;;;5038217;28;20049;-61
2021/07/28 08:59:38;;;;;;;0.90;0.10;;;25.50;51.90;;;;;;5038487;28;20069;-61
2021/07/28 09:02:05;;;;;;;0.10;0.10;;;25.50;51.90;;;;;;5033760;28;20036;-61
2021/07/28 09:04:32;;;;;;;0.15;0.10;;;25.50;51.90;;;;;;5034197;28;20065;-61
2021/07/28 09:07:00;;;;;;;0.85;0.10;;;25.50;51.90;;;;;;5034390;28;20051;-60
2021/07/28 09:09:29;;;;;;;0.13;0.10;;;25.60;52.00;;;;;;5035232;28;20053;-61
2021/07/28 09:11:57;;;;;;;1.30;0.15;;;25.60;52.00;;;;;;5037972;28;20057;-61
2021/07/28 09:14:27;;;;;;;1.13;0.10;;;25.60;52.00;;;;;;5033584;28;20054;-61
2021/07/28 09:17:12;;;;;;;0.22;0.10;;;25.50;51.90;;;;;;5037284;28;20647;-60
2021/07/28 09:19:41;;;;;;;1.20;0.10;;;25.60;52.00;;;;;;5046281;28;20045;-61
2021/07/28 09:22:10;;;;;;;0.10;0.10;;;25.60;52.00;;;;;;5034758;28;20156;-61
2021/07/28 09:24:40;;;;;;;0.95;0.20;;;25.60;52.00;;;;;;5034527;28;20868;-59
2021/07/28 09:27:08;;;;;;;1.50;0.10;;;25.60;52.00;;;;;;5047971;28;20049;-61
2021/07/28 09:29:39;;;;;;;0.43;0.10;;;25.60;51.90;;;;;;5039128;28;20793;-60
2021/07/28 09:32:08;;;;;;;0.10;0.10;;;25.60;52.00;;;;;;5039981;28;20132;-60
2021/07/28 09:34:37;;;;;;;1.40;0.10;;;25.60;51.90;;;;;;5034499;28;20052;-60
2021/07/28 09:37:10;;;;;;;0.73;0.17;;;25.60;52.50;;;;;;5032695;28;20037;-60
2021/07/28 09:39:40;;;;;;;0.10;0.10;;;25.60;51.90;;;;;;5034050;28;20046;-60
2021/07/28 09:42:12;;;;;;;0.45;0.13;;;25.60;51.90;;;;;;5037324;28;20170;-60
2021/07/28 09:44:41;;;;;;;0.32;0.10;;;25.70;51.90;;;;;;5037804;28;20111;-60
2021/07/28 09:47:11;;;;;;;0.65;0.10;;;25.70;51.90;;;;;;5034421;28;20076;-59
2021/07/28 09:49:40;;;;;;;1.08;0.13;;;25.70;51.80;;;;;;5035089;28;20049;-60
2021/07/28 09:52:23;;;;;;;0.43;0.10;;;25.70;51.80;;;;;;5035044;28;20124;-60
2021/07/28 09:54:53;;;;;;;0.15;0.15;;;25.70;51.80;;;;;;5032891;28;20059;-60
2021/07/28 09:57:21;;;;;;;0.20;0.10;;;25.70;51.80;;;;;;5035900;28;20129;-60
2021/07/28 09:59:52;;;;;;;2.13;0.10;;;25.70;51.80;;;;;;5037995;28;20033;-60
2021/07/28 10:02:44;;;;;;;0.10;0.10;;;25.70;51.80;;;;;;5039326;28;20793;-61
2021/07/28 10:05:12;;;;;;;0.15;0.15;;;25.80;51.90;;;;;;5035847;28;20111;-61
2021/07/28 10:07:42;;;;;;;0.43;0.10;;;25.70;51.70;;;;;;5034374;28;20041;-60
2021/07/28 10:10:13;;;;;;;1.35;0.20;;;25.80;51.80;;;;;;5032523;28;20073;-58
2021/07/28 10:12:41;;;;;;;0.10;0.10;;;25.80;51.70;;;;;;5033411;28;20045;-60
2021/07/28 10:15:09;;;;;;;0.32;0.32;;;25.80;52.30;;;;;;5035956;28;20049;-60
2021/07/28 10:17:39;;;;;;;0.20;0.10;;;25.80;51.70;;;;;;5041946;28;20422;-60
2021/07/28 10:20:08;;;;;;;0.88;0.25;;;25.80;51.60;;;;;;5043423;28;20048;-61
2021/07/28 10:22:36;;;;;;;1.13;0.10;;;25.80;51.60;;;;;;5036221;28;20128;-59
2021/07/28 10:25:07;;;;;;;0.45;0.10;;;25.80;52.10;;;;;;5033456;28;20041;-60
2021/07/28 10:27:41;;;;;;;1.75;0.28;;;25.80;51.50;;;;;;5045051;28;20041;-61
2021/07/28 10:30:13;;;;;;;0.20;0.10;;;25.90;51.50;;;;;;5037114;28;20052;-61
2021/07/28 10:32:41;;;;;;;0.50;0.10;;;25.90;51.50;;;;;;5038437;28;20047;-61
2021/07/28 10:35:25;;;;;;;1.23;0.93;;;25.90;51.50;;;;;;5041133;28;20048;-61
2021/07/28 10:37:53;;;;;;;0.57;0.10;;;25.90;51.40;;;;;;5039400;28;20076;-60
2021/07/28 10:40:49;;;;;;;0.65;0.10;;;25.90;51.40;;;;;;5042317;28;20134;-61
2021/07/28 10:43:18;;;;;;;0.90;0.10;;;25.90;51.30;;;;;;5028112;28;20056;-60
2021/07/28 10:45:57;;;;;;;0.30;0.20;;;25.90;51.40;;;;;;5027070;28;20047;-61
2021/07/28 10:48:50;;;;;;;0.60;0.10;;;26.00;51.30;;;;;;5031877;28;20419;-60
2021/07/28 10:51:47;;;;;;;0.35;0.15;;;26.00;51.30;;;;;;5032049;28;20053;-61
2021/07/28 10:54:14;;;;;;;;;;;26.00;51.30;;;;;;5043400;28;20446;-61
2021/07/28 10:57:08;;;;;;;1.55;0.10;;;25.90;51.20;;;;;;5042541;28;20677;-60
2021/07/28 10:59:43;;;;;;;0.10;0.10;;;25.90;51.20;;;;;;5042795;28;20124;-60
2021/07/28 11:02:10;;;;;;;4.63;0.10;;;25.90;51.20;;;;;;5042613;28;20064;-60
2021/07/28 11:04:37;;;;;;;0.40;0.10;;;25.90;51.10;;;;;;5036157;28;20060;-61
2021/07/28 11:07:04;;;;;;;0.82;0.35;;;26.00;51.10;;;;;;5037114;28;20071;-58
2021/07/28 11:09:32;;;;;;;0.82;0.20;;;26.00;51.10;;;;;;5037012;28;20414;-60
2021/07/28 11:11:59;;;;;;;1.75;0.20;;;26.00;51.00;;;;;;5040633;28;20477;-60
2021/07/28 11:14:27;;;;;;;2.00;0.10;;;26.00;51.10;;;;;;5040301;28;20103;-59
2021/07/28 11:16:56;;;;;;;2.00;0.47;;;26.10;51.20;;;;;;5039835;28;20119;-61
2021/07/28 11:19:23;;;;;;;0.38;0.20;;;26.10;51.20;;;;;;5034932;28;20041;-61
2021/07/28 11:21:51;;;;;;;1.10;0.30;;;26.10;51.20;;;;;;5035153;28;20041;-61
2021/07/28 11:24:18;;;;;;;0.73;0.10;;;26.10;51.10;;;;;;5048717;28;20060;-60
2021/07/28 11:26:46;;;;;;;2.15;0.10;;;26.10;51.00;;;;;;5047223;28;20518;-61
2021/07/28 11:29:18;;;;;;;0.82;0.20;;;26.10;51.00;;;;;;5048089;28;20071;-61
2021/07/28 11:31:47;;;;;;;0.60;0.10;;;26.10;50.90;;;;;;5045591;28;20050;-60
2021/07/28 11:34:20;;;;;;;1.30;0.30;;;26.20;51.00;;;;;;5047296;28;20041;-61
2021/07/28 11:36:56;;;;;;;1.27;0.10;;;26.20;50.90;;;;;;5041223;28;20537;-61
2021/07/28 11:39:24;;;;;;;0.65;0.20;;;26.20;50.90;;;;;;5040482;28;20841;-61
2021/07/28 11:42:01;;;;;;;4.95;0.25;;;26.20;50.90;;;;;;5041884;28;20148;-61
2021/07/28 11:44:28;;;;;;;1.08;0.17;;;26.20;50.90;;;;;;5031198;28;20069;-60
2021/07/28 11:46:56;;;;;;;0.40;0.30;;;26.20;50.90;;;;;;5030592;28;20041;-60
2021/07/28 11:49:28;;;;;;;0.20;0.20;;;26.20;51.00;;;;;;5040268;28;20054;-58
2021/07/28 11:52:00;;;;;;;0.20;0.20;;;26.20;50.90;;;;;;5032101;28;20124;-61
2021/07/28 11:54:31;;;;;;;1.15;0.28;;;26.30;50.80;;;;;;5035937;28;20116;-60
2021/07/28 11:56:58;;;;;;;0.10;0.10;;;26.30;50.70;;;;;;5040028;28;20037;-60
2021/07/28 11:59:28;;;;;;;0.88;0.30;;;26.30;50.70;;;;;;5045794;28;20156;-61
2021/07/28 12:01:56;;;;;;;0.20;0.10;;;26.30;50.60;;;;;;5046858;28;20065;-61
2021/07/28 12:04:25;;;;;;;0.30;0.20;;;26.30;50.70;;;;;;5034768;28;20041;-61
2021/07/28 12:06:55;;;;;;;0.80;0.22;;;26.30;50.60;;;;;;5045394;28;20052;-61
2021/07/28 12:09:23;;;;;;;0.70;0.20;;;26.40;50.60;;;;;;5037408;28;20042;-60
2021/07/28 12:11:56;;;;;;;1.95;0.70;;;26.40;50.50;;;;;;5038823;28;20780;-60
2021/07/28 12:14:38;;;;;;;0.90;0.75;;;26.40;50.50;;;;;;5039051;28;20041;-60
2021/07/28 12:17:08;;;;;;;0.50;0.20;;;26.40;50.50;;;;;;5038897;28;20134;-60
2021/07/28 12:19:38;;;;;;;1.00;0.45;;;26.40;50.50;;;;;;5037173;28;20041;-60
2021/07/28 12:22:12;;;;;;;0.40;0.30;;;26.40;50.50;;;;;;5034245;28;20051;-61
2021/07/28 12:24:42;;;;;;;0.70;0.13;;;26.50;50.50;;;;;;5035471;28;20041;-61
2021/07/28 12:27:35;;;;;;;0.95;0.20;;;26.40;50.30;;;;;;5042782;28;20209;-58
2021/07/28 12:30:04;;;;;;;0.10;0.10;;;26.50;50.10;;;;;;5034456;28;20053;-60
2021/07/28 12:32:35;;;;;;;0.65;0.40;;;26.40;50.10;;;;;;5039581;28;20633;-60
2021/07/28 12:35:04;;;;;;;0.70;0.20;;;26.50;50.00;;;;;;5038591;28;20056;-60
2021/07/28 12:37:33;;;;;;;0.30;0.10;;;26.50;50.00;;;;;;5034789;28;20692;-60
2021/07/28 12:40:00;;;;;;;1.67;0.20;;;26.50;50.00;;;;;;5043667;28;20057;-60
2021/07/28 12:42:28;;;;;;;0.80;0.20;;;26.50;50.00;;;;;;5030774;28;20049;-60
2021/07/28 12:44:55;;;;;;;0.60;0.30;;;26.50;50.10;;;;;;5040541;28;20124;-61
2021/07/28 12:47:23;;;;;;;0.20;0.20;;;26.50;50.10;;;;;;5038196;28;20414;-60
2021/07/28 12:49:51;;;;;;;0.40;0.10;;;26.50;50.10;;;;;;5037079;28;20140;-58
2021/07/28 12:52:18;;;;;;;0.82;0.10;;;26.60;50.20;;;;;;5033264;28;20045;-61
2021/07/28 12:54:47;;;;;;;0.40;0.20;;;26.60;50.10;;;;;;5033903;28;20069;-61
2021/07/28 12:57:14;;;;;;;0.55;0.20;;;26.60;50.50;;;;;;5033481;28;20582;-59
2021/07/28 12:59:41;;;;;;;0.75;0.35;;;26.60;49.90;;;;;;5043337;28;20040;-61
2021/07/28 13:02:08;;;;;;;0.60;0.20;;;26.60;49.80;;;;;;5038856;28;20114;-60